createdAt,value
2023-03-08T00:00:27.246Z,82.77
2023-03-08T00:02:29.938Z,83.29
2023-03-08T00:04:32.688Z,83.13
2023-03-08T00:06:35.894Z,83.57
2023-03-08T00:08:40.094Z,83.42
2023-03-08T00:10:42.823Z,84.05
2023-03-08T00:12:45.563Z,83.56
2023-03-08T00:14:48.632Z,83.27
2023-03-08T00:16:51.332Z,83.62
2023-03-08T00:18:54.187Z,84.05
2023-03-08T00:21:01.078Z,85.48
2023-03-08T00:23:03.933Z,87.53
2023-03-08T00:25:10.429Z,87.80
2023-03-08T00:27:13.150Z,88.61
2023-03-08T00:29:16.168Z,88.23
2023-03-08T00:31:18.987Z,87.66
2023-03-08T00:33:21.696Z,87.20
2023-03-08T00:35:24.443Z,87.59
2023-03-08T00:37:27.182Z,87.20
2023-03-08T00:39:29.878Z,87.95
2023-03-08T00:41:35.162Z,88.34
2023-03-08T00:43:38.375Z,87.90
2023-03-08T00:45:41.102Z,88.01
2023-03-08T00:47:43.803Z,87.88
2023-03-08T00:49:46.615Z,87.85
2023-03-08T00:51:50.779Z,88.69
2023-03-08T00:53:53.678Z,88.78
2023-03-08T00:55:59.790Z,88.85
2023-03-08T00:58:06.841Z,88.33
2023-03-08T01:00:12.854Z,88.38
2023-03-08T01:02:15.939Z,89.52
2023-03-08T01:04:18.734Z,90.38
2023-03-08T01:06:21.534Z,91.76
2023-03-08T01:08:26.473Z,94.09
2023-03-08T01:10:29.129Z,92.46
2023-03-08T01:12:33.056Z,92.92
2023-03-08T01:14:38.497Z,93.75
2023-03-08T01:16:42.857Z,93.67
2023-03-08T01:18:45.580Z,93.22
2023-03-08T01:20:56.525Z,95.35
2023-03-08T01:22:59.659Z,95.52
2023-03-08T01:25:02.464Z,94.28
2023-03-08T01:27:05.287Z,94.11
2023-03-08T01:29:08.263Z,92.46
2023-03-08T01:31:23.120Z,92.96
2023-03-08T01:33:27.715Z,92.71
2023-03-08T01:35:30.657Z,92.52
2023-03-08T01:37:34.305Z,92.46
2023-03-08T01:39:37.140Z,93.48
2023-03-08T01:41:40.038Z,92.87
2023-03-08T01:43:43.286Z,92.62
2023-03-08T01:46:06.763Z,92.93
2023-03-08T01:48:12.427Z,93.12
2023-03-08T01:50:40.970Z,93.17
2023-03-08T01:52:47.716Z,93.01
2023-03-08T01:54:54.323Z,93.40
2023-03-08T01:57:02.590Z,93.59
2023-03-08T01:59:05.622Z,93.58
2023-03-08T02:01:11.431Z,94.31
2023-03-08T02:03:15.712Z,94.03
2023-03-08T02:05:20.466Z,94.21
2023-03-08T02:07:26.769Z,93.85
2023-03-08T02:09:30.045Z,93.29
2023-03-08T02:11:37.479Z,93.66
2023-03-08T02:13:40.880Z,93.30
2023-03-08T02:15:44.243Z,92.98
2023-03-08T02:17:47.798Z,92.99
2023-03-08T02:19:56.994Z,92.64
2023-03-08T02:21:59.862Z,92.92
2023-03-08T02:24:08.055Z,92.78
2023-03-08T02:26:10.805Z,93.26
2023-03-08T02:28:13.616Z,93.21
2023-03-08T02:30:23.902Z,92.87
2023-03-08T02:32:26.846Z,92.40
2023-03-08T02:34:29.666Z,92.24
2023-03-08T02:36:34.080Z,92.58
2023-03-08T02:38:36.963Z,92.56
2023-03-08T02:40:41.572Z,92.51
2023-03-08T02:42:45.290Z,92.74
2023-03-08T02:44:48.081Z,92.99
2023-03-08T02:46:53.407Z,93.10
2023-03-08T02:48:56.182Z,92.52
2023-03-08T02:50:58.925Z,92.91
2023-03-08T02:53:01.728Z,94.16
2023-03-08T02:55:04.912Z,94.69
2023-03-08T02:57:09.413Z,93.37
2023-03-08T02:59:13.845Z,93.44
2023-03-08T03:01:18.285Z,94.11
2023-03-08T03:03:21.016Z,93.10
2023-03-08T03:05:26.907Z,92.28
2023-03-08T03:07:29.972Z,92.05
2023-03-08T03:09:32.974Z,91.59
2023-03-08T03:11:35.771Z,91.58
2023-03-08T03:13:39.955Z,91.61
2023-03-08T03:15:43.079Z,91.28
2023-03-08T03:17:45.954Z,91.99
2023-03-08T03:19:48.687Z,91.23
2023-03-08T03:21:51.480Z,91.53
2023-03-08T03:23:55.661Z,90.72
2023-03-08T03:26:06.962Z,90.12
2023-03-08T03:28:10.541Z,90.45
2023-03-08T03:30:15.543Z,90.09
2023-03-08T03:32:19.645Z,90.25
2023-03-08T03:34:22.598Z,90.17
2023-03-08T03:36:26.555Z,90.08
2023-03-08T03:38:29.707Z,90.35
2023-03-08T03:40:32.490Z,90.12
2023-03-08T03:42:38.127Z,89.91
2023-03-08T03:44:46.172Z,89.96
2023-03-08T03:46:54.131Z,89.88
2023-03-08T03:49:00.838Z,89.50
2023-03-08T03:51:12.600Z,89.77
2023-03-08T03:53:19.292Z,89.76
2023-03-08T03:55:22.164Z,89.89
2023-03-08T03:57:26.507Z,90.65
2023-03-08T03:59:29.725Z,90.35
2023-03-08T04:01:33.767Z,90.87
2023-03-08T04:03:45.028Z,91.80
2023-03-08T04:05:47.990Z,91.34
2023-03-08T04:07:51.402Z,94.58
2023-03-08T04:09:55.919Z,95.08
2023-03-08T04:12:02.507Z,94.52
2023-03-08T04:14:07.162Z,93.75
2023-03-08T04:16:11.490Z,93.06
2023-03-08T04:18:14.414Z,93.09
2023-03-08T04:20:21.777Z,92.97
2023-03-08T04:22:30.682Z,92.22
2023-03-08T04:24:41.970Z,91.91
2023-03-08T04:26:50.117Z,92.06
2023-03-08T04:28:55.341Z,91.78
2023-03-08T04:31:01.483Z,92.39
2023-03-08T04:33:04.670Z,92.47
2023-03-08T04:35:16.467Z,92.49
2023-03-08T04:37:23.514Z,92.47
2023-03-08T04:39:30.590Z,92.47
2023-03-08T04:41:33.698Z,92.58
2023-03-08T04:43:47.896Z,92.96
2023-03-08T04:45:52.118Z,92.61
2023-03-08T04:47:54.939Z,93.17
2023-03-08T04:49:58.349Z,93.45
2023-03-08T04:52:01.488Z,93.02
2023-03-08T04:54:06.748Z,93.06
2023-03-08T04:56:15.111Z,93.12
2023-03-08T04:58:19.245Z,92.51
2023-03-08T05:00:23.543Z,92.36
2023-03-08T05:02:27.189Z,92.71
2023-03-08T05:04:29.990Z,92.48
2023-03-08T05:06:32.762Z,92.54
2023-03-08T05:08:35.558Z,93.05
2023-03-08T05:10:39.751Z,92.78
2023-03-08T05:12:43.190Z,91.92
2023-03-08T05:14:45.941Z,92.92
2023-03-08T05:16:48.690Z,93.00
2023-03-08T05:18:51.911Z,93.08
2023-03-08T05:20:59.363Z,92.96
2023-03-08T05:23:03.058Z,93.09
2023-03-08T05:25:12.651Z,92.73
2023-03-08T05:27:16.910Z,93.18
2023-03-08T05:29:21.178Z,93.13
2023-03-08T05:31:24.185Z,93.04
2023-03-08T05:33:29.171Z,92.93
2023-03-08T05:35:31.988Z,92.97
2023-03-08T05:37:34.779Z,93.75
2023-03-08T05:39:40.060Z,93.39
2023-03-08T05:41:51.451Z,93.45
2023-03-08T05:44:03.383Z,92.95
2023-03-08T05:46:11.785Z,93.10
2023-03-08T05:48:14.956Z,94.08
2023-03-08T05:50:18.036Z,93.77
2023-03-08T05:52:22.562Z,94.23
2023-03-08T05:54:26.047Z,94.65
2023-03-08T05:56:32.344Z,95.03
2023-03-08T05:58:46.664Z,95.65
2023-03-08T06:00:52.211Z,95.64
2023-03-08T06:02:55.170Z,96.20
2023-03-08T06:04:58.048Z,96.58
2023-03-08T06:07:02.285Z,96.59
2023-03-08T06:09:10.964Z,96.72
2023-03-08T06:11:17.200Z,96.68
2023-03-08T06:13:23.201Z,96.94
2023-03-08T06:15:26.103Z,97.34
2023-03-08T06:17:30.738Z,97.37
2023-03-08T06:19:35.272Z,97.29
2023-03-08T06:21:38.030Z,97.36
2023-03-08T06:23:41.412Z,97.69
2023-03-08T06:25:45.282Z,98.33
2023-03-08T06:27:48.309Z,98.38
2023-03-08T06:30:03.221Z,98.13
2023-03-08T06:32:08.607Z,97.85
2023-03-08T06:34:14.110Z,97.56
2023-03-08T06:36:19.235Z,97.29
2023-03-08T06:38:22.641Z,97.71
2023-03-08T06:40:25.433Z,97.82
2023-03-08T06:42:40.223Z,97.74
2023-03-08T06:44:44.193Z,97.81
2023-03-08T06:46:46.959Z,98.64
2023-03-08T06:48:50.855Z,99.73
2023-03-08T06:50:55.375Z,99.82
2023-03-08T06:52:58.108Z,100.00
2023-03-08T06:55:14.748Z,100.00
2023-03-08T06:57:17.940Z,100.00
2023-03-08T06:59:20.694Z,100.00
2023-03-08T07:01:23.539Z,100.00
2023-03-08T07:03:27.005Z,100.00
2023-03-08T07:05:29.979Z,100.00
2023-03-08T07:07:35.585Z,100.00
2023-03-08T07:09:38.405Z,100.00
2023-03-08T07:11:41.638Z,100.00
2023-03-08T07:13:44.415Z,100.00
2023-03-08T07:15:47.171Z,100.00
2023-03-08T07:17:52.600Z,100.00
2023-03-08T07:19:55.369Z,100.00
2023-03-08T07:21:58.217Z,100.00
2023-03-08T07:24:02.301Z,100.00
2023-03-08T07:26:06.706Z,100.00
2023-03-08T07:28:09.453Z,100.00
2023-03-08T07:30:13.901Z,100.00
2023-03-08T07:32:16.788Z,100.00
2023-03-08T07:34:19.616Z,100.00
2023-03-08T07:36:22.503Z,100.00
2023-03-08T07:38:25.275Z,100.00
2023-03-08T07:40:29.480Z,100.00
2023-03-08T07:42:32.532Z,100.00
2023-03-08T07:44:46.644Z,100.00
2023-03-08T07:46:49.401Z,100.00
2023-03-08T07:48:55.287Z,100.00
2023-03-08T07:51:03.020Z,100.00
2023-03-08T07:53:07.759Z,100.00
2023-03-08T07:55:11.909Z,100.00
2023-03-08T07:57:16.898Z,100.00
2023-03-08T07:59:19.902Z,100.00
2023-03-08T08:01:22.692Z,100.00
2023-03-08T08:03:25.732Z,100.00
2023-03-08T08:05:28.643Z,100.00
2023-03-08T08:07:32.340Z,100.00
2023-03-08T08:09:37.381Z,100.00
2023-03-08T08:11:40.130Z,100.00
2023-03-08T08:13:46.583Z,100.00
2023-03-08T08:15:59.225Z,100.00
2023-03-08T08:18:02.264Z,100.00
2023-03-08T08:20:06.790Z,100.00
2023-03-08T08:22:09.544Z,100.00
2023-03-08T08:24:12.284Z,100.00
2023-03-08T08:26:17.158Z,100.00
2023-03-08T08:28:19.885Z,100.00
2023-03-08T08:30:24.012Z,100.00
2023-03-08T08:32:27.281Z,100.00
2023-03-08T08:34:30.051Z,100.00
2023-03-08T08:36:32.858Z,100.00
2023-03-08T08:38:36.379Z,100.00
2023-03-08T08:40:39.171Z,100.00
2023-03-08T08:42:41.894Z,100.00
2023-03-08T08:44:44.634Z,100.00
2023-03-08T08:46:48.747Z,100.00
2023-03-08T08:48:51.491Z,100.00
2023-03-08T08:50:54.978Z,100.00
2023-03-08T08:52:57.830Z,100.00
2023-03-08T08:55:01.687Z,100.00
2023-03-08T08:57:04.524Z,100.00
2023-03-08T08:59:07.224Z,100.00
2023-03-08T09:01:17.941Z,100.00
2023-03-08T09:03:22.026Z,100.00
2023-03-08T09:05:24.853Z,100.00
2023-03-08T09:07:27.633Z,100.00
2023-03-08T09:09:30.329Z,100.00
2023-03-08T09:11:39.733Z,100.00
2023-03-08T09:13:47.778Z,100.00
2023-03-08T09:15:50.508Z,100.00
2023-03-08T09:17:53.456Z,100.00
2023-03-08T09:19:57.544Z,100.00
2023-03-08T09:22:00.241Z,100.00
2023-03-08T09:24:05.563Z,100.00
2023-03-08T09:26:08.293Z,100.00
2023-03-08T09:28:12.308Z,100.00
2023-03-08T09:30:17.343Z,100.00
2023-03-08T09:32:20.138Z,100.00
2023-03-08T09:34:22.936Z,100.00
2023-03-08T09:36:28.510Z,100.00
2023-03-08T09:38:31.243Z,100.00
2023-03-08T09:40:40.419Z,100.00
2023-03-08T09:42:45.112Z,100.00
2023-03-08T09:45:02.460Z,100.00
2023-03-08T09:47:14.236Z,100.00
2023-03-08T09:49:21.742Z,100.00
2023-03-08T09:51:28.280Z,100.00
2023-03-08T09:53:38.345Z,100.00
2023-03-08T09:55:46.783Z,100.00
2023-03-08T09:57:53.576Z,100.00
2023-03-08T09:59:58.626Z,100.00
2023-03-08T10:02:05.886Z,100.00
2023-03-08T10:04:40.592Z,100.00
2023-03-08T10:06:50.959Z,100.00
2023-03-08T10:09:02.712Z,100.00
2023-03-08T10:11:08.229Z,100.00
2023-03-08T10:13:32.999Z,100.00
2023-03-08T10:15:41.181Z,100.00
2023-03-08T10:17:50.174Z,100.00
2023-03-08T10:19:58.002Z,100.00
2023-03-08T10:22:08.058Z,100.00
2023-03-08T10:24:17.201Z,100.00
2023-03-08T10:26:20.620Z,100.00
2023-03-08T10:28:26.339Z,100.00
2023-03-08T10:30:34.731Z,100.00
2023-03-08T10:32:43.887Z,100.00
2023-03-08T10:34:47.054Z,100.00
2023-03-08T10:36:52.550Z,100.00
2023-03-08T10:39:04.898Z,100.00
2023-03-08T10:41:16.049Z,100.00
2023-03-08T10:43:26.454Z,100.00
2023-03-08T10:45:30.782Z,100.00
2023-03-08T10:47:35.517Z,100.00
2023-03-08T10:49:38.207Z,100.00
2023-03-08T10:51:40.863Z,100.00
2023-03-08T10:53:54.416Z,100.00
2023-03-08T10:55:58.531Z,100.00
2023-03-08T10:58:03.731Z,100.00
2023-03-08T11:00:22.128Z,100.00
2023-03-08T11:02:25.214Z,100.00
2023-03-08T11:04:29.521Z,100.00
2023-03-08T11:06:35.104Z,100.00
2023-03-08T11:08:39.868Z,100.00
2023-03-08T11:10:42.677Z,100.00
2023-03-08T11:12:46.022Z,100.00
2023-03-08T11:14:50.686Z,100.00
2023-03-08T11:17:03.085Z,100.00
2023-03-08T11:19:22.461Z,100.00
2023-03-08T11:21:33.317Z,100.00
2023-03-08T11:23:42.137Z,100.00
2023-03-08T11:25:47.509Z,100.00
2023-03-08T11:28:08.199Z,100.00
2023-03-08T11:30:23.927Z,100.00
2023-03-08T11:32:44.665Z,100.00
2023-03-08T11:34:59.967Z,100.00
2023-03-08T11:37:10.872Z,100.00
2023-03-08T11:39:19.842Z,100.00
2023-03-08T11:41:28.922Z,100.00
2023-03-08T11:43:49.265Z,100.00
2023-03-08T11:45:58.870Z,100.00
2023-03-08T11:48:16.192Z,100.00
2023-03-08T11:50:23.096Z,100.00
2023-03-08T11:52:36.124Z,100.00
2023-03-08T11:55:02.061Z,100.00
2023-03-08T11:57:08.858Z,100.00
2023-03-08T11:59:18.870Z,100.00
2023-03-08T12:01:26.729Z,100.00
2023-03-08T12:03:34.999Z,100.00
2023-03-08T12:05:41.997Z,100.00
2023-03-08T12:07:48.738Z,100.00
2023-03-08T12:09:57.566Z,100.00
2023-03-08T12:12:05.184Z,100.00
2023-03-08T12:14:18.025Z,100.00
2023-03-08T12:16:27.205Z,100.00
2023-03-08T12:18:38.450Z,100.00
2023-03-08T12:20:44.123Z,100.00
2023-03-08T12:22:51.972Z,100.00
2023-03-08T12:25:00.208Z,100.00
2023-03-08T12:27:08.196Z,100.00
2023-03-08T12:29:17.336Z,100.00
2023-03-08T12:31:29.509Z,100.00
2023-03-08T12:33:33.988Z,100.00
2023-03-08T12:35:38.493Z,100.00
2023-03-08T12:37:41.318Z,100.00
2023-03-08T12:39:44.069Z,100.00
2023-03-08T12:41:58.628Z,100.00
2023-03-08T12:44:04.696Z,100.00
2023-03-08T12:46:09.678Z,100.00
2023-03-08T12:48:22.875Z,100.00
2023-03-08T12:50:26.204Z,100.00
2023-03-08T12:52:34.779Z,100.00
2023-03-08T12:54:37.573Z,100.00
2023-03-08T12:56:52.486Z,100.00
2023-03-08T12:58:57.027Z,100.00
2023-03-08T13:01:02.641Z,100.00
2023-03-08T13:03:08.141Z,100.00
2023-03-08T13:05:31.779Z,100.00
2023-03-08T13:07:39.508Z,100.00
2023-03-08T13:09:51.277Z,100.00
2023-03-08T13:12:02.831Z,100.00
2023-03-08T13:14:06.071Z,100.00
2023-03-08T13:16:30.199Z,100.00
2023-03-08T13:18:33.215Z,100.00
2023-03-08T13:20:55.662Z,100.00
2023-03-08T13:23:03.912Z,100.00
2023-03-08T13:25:17.040Z,100.00
2023-03-08T13:27:26.960Z,100.00
2023-03-08T13:29:31.882Z,100.00
2023-03-08T13:31:34.712Z,100.00
2023-03-08T13:33:40.131Z,100.00
2023-03-08T13:35:44.398Z,100.00
2023-03-08T13:37:54.311Z,100.00
2023-03-08T13:39:59.851Z,100.00
2023-03-08T13:42:11.008Z,100.00
2023-03-08T13:44:17.298Z,100.00
2023-03-08T13:46:21.020Z,100.00
2023-03-08T13:48:27.227Z,100.00
2023-03-08T13:50:32.388Z,100.00
2023-03-08T13:52:39.482Z,100.00
2023-03-08T13:54:46.735Z,100.00
2023-03-08T13:56:54.068Z,100.00
2023-03-08T13:58:59.582Z,100.00
2023-03-08T14:01:05.836Z,100.00
2023-03-08T14:03:08.670Z,100.00
2023-03-08T14:05:18.751Z,100.00
2023-03-08T14:07:25.180Z,100.00
2023-03-08T14:09:29.465Z,100.00
2023-03-08T14:11:34.482Z,100.00
2023-03-08T14:13:39.503Z,100.00
2023-03-08T14:15:50.206Z,100.00
2023-03-08T14:17:53.197Z,100.00
2023-03-08T14:19:58.032Z,100.00
2023-03-08T14:22:02.874Z,100.00
2023-03-08T14:24:06.939Z,100.00
2023-03-08T14:28:41.917Z,100.00
2023-03-08T14:30:48.950Z,100.00
2023-03-08T14:33:06.084Z,100.00
2023-03-08T14:35:17.844Z,100.00
2023-03-08T14:37:25.930Z,100.00
2023-03-08T14:39:30.961Z,100.00
2023-03-08T14:41:37.255Z,100.00
2023-03-08T14:43:41.369Z,100.00
2023-03-08T14:45:54.122Z,100.00
2023-03-08T14:47:59.086Z,100.00
2023-03-08T14:50:04.119Z,100.00
2023-03-08T14:52:09.382Z,100.00
2023-03-08T14:54:29.467Z,100.00
2023-03-08T14:56:33.467Z,100.00
2023-03-08T14:58:40.064Z,100.00
2023-03-08T15:00:51.807Z,100.00
2023-03-08T15:02:54.806Z,100.00
2023-03-08T15:04:57.528Z,100.00
2023-03-08T15:07:00.274Z,100.00
2023-03-08T15:09:05.064Z,100.00
2023-03-08T15:11:08.445Z,100.00
2023-03-08T15:13:14.675Z,100.00
2023-03-08T15:15:17.554Z,100.00
2023-03-08T15:17:22.607Z,100.00
2023-03-08T15:19:25.523Z,100.00
2023-03-08T15:21:29.908Z,100.00
2023-03-08T15:23:36.149Z,100.00
2023-03-08T15:25:39.496Z,100.00
2023-03-08T15:27:42.279Z,100.00
2023-03-08T15:29:44.983Z,100.00
2023-03-08T15:31:47.722Z,100.00
2023-03-08T15:33:51.784Z,100.00
2023-03-08T15:35:54.614Z,100.00
2023-03-08T15:37:57.422Z,100.00
2023-03-08T15:40:00.160Z,100.00
2023-03-08T15:42:02.888Z,100.00
2023-03-08T15:44:05.609Z,100.00
2023-03-08T15:46:11.575Z,100.00
2023-03-08T15:48:18.020Z,100.00
2023-03-08T15:50:22.091Z,100.00
2023-03-08T15:52:30.221Z,100.00
2023-03-08T15:54:33.522Z,100.00
2023-03-08T15:56:36.309Z,100.00
2023-03-08T15:58:39.054Z,100.00
2023-03-08T16:00:41.771Z,100.00
2023-03-08T16:02:44.556Z,100.00
2023-03-08T16:04:48.977Z,100.00
2023-03-08T16:06:53.074Z,100.00
2023-03-08T16:08:55.840Z,100.00
2023-03-08T16:11:03.709Z,100.00
2023-03-08T16:13:06.544Z,100.00
2023-03-08T16:15:10.777Z,100.00
2023-03-08T16:17:16.180Z,100.00
2023-03-08T16:19:19.335Z,100.00
2023-03-08T16:21:22.051Z,100.00
2023-03-08T16:23:26.653Z,100.00
2023-03-08T16:25:29.436Z,100.00
2023-03-08T16:27:34.513Z,100.00
2023-03-08T16:29:38.244Z,100.00
2023-03-08T16:31:41.075Z,100.00
2023-03-08T16:33:43.844Z,100.00
2023-03-08T16:35:50.255Z,100.00
2023-03-08T16:37:54.122Z,100.00
2023-03-08T16:40:01.886Z,100.00
2023-03-08T16:42:04.776Z,100.00
2023-03-08T16:44:08.181Z,100.00
2023-03-08T16:46:16.139Z,100.00
2023-03-08T16:48:19.024Z,100.00
2023-03-08T16:50:21.753Z,100.00
2023-03-08T16:52:24.479Z,100.00
2023-03-08T16:54:27.241Z,100.00
2023-03-08T16:56:31.520Z,100.00
2023-03-08T16:58:34.298Z,100.00
2023-03-08T17:00:37.077Z,100.00
2023-03-08T17:02:40.484Z,100.00
2023-03-08T17:04:43.327Z,100.00
2023-03-08T17:06:46.343Z,100.00
2023-03-08T17:08:49.911Z,100.00
2023-03-08T17:10:52.604Z,100.00
2023-03-08T17:12:56.649Z,100.00
2023-03-08T17:14:59.387Z,100.00
2023-03-08T17:17:02.165Z,100.00
2023-03-08T17:19:06.390Z,100.00
2023-03-08T17:21:09.696Z,100.00
2023-03-08T17:23:13.502Z,100.00
2023-03-08T17:25:16.394Z,100.00
2023-03-08T17:27:19.143Z,100.00
2023-03-08T17:29:23.759Z,100.00
2023-03-08T17:31:26.467Z,100.00
2023-03-08T17:33:29.364Z,100.00
2023-03-08T17:35:32.177Z,100.00
2023-03-08T17:37:41.714Z,100.00
2023-03-08T17:39:44.580Z,100.00
2023-03-08T17:41:47.601Z,100.00
2023-03-08T17:43:50.737Z,100.00
2023-03-08T17:46:02.220Z,100.00
2023-03-08T17:48:05.288Z,100.00
2023-03-08T17:50:09.859Z,100.00
2023-03-08T17:52:12.592Z,100.00
2023-03-08T17:54:15.385Z,100.00
2023-03-08T17:56:21.286Z,100.00
2023-03-08T17:58:24.374Z,100.00
2023-03-08T18:00:27.130Z,100.00
2023-03-08T18:02:31.198Z,100.00
2023-03-08T18:04:33.973Z,100.00
2023-03-08T18:06:39.070Z,100.00
2023-03-08T18:08:41.879Z,100.00
2023-03-08T18:10:44.702Z,100.00
2023-03-08T18:12:47.773Z,100.00
2023-03-08T18:14:52.667Z,100.00
2023-03-08T18:16:55.423Z,100.00
2023-03-08T18:18:59.482Z,100.00
2023-03-08T18:21:12.620Z,100.00
2023-03-08T18:23:17.282Z,100.00
2023-03-08T18:25:20.481Z,100.00
2023-03-08T18:27:23.207Z,100.00
2023-03-08T18:29:26.042Z,100.00
2023-03-08T18:31:31.006Z,100.00
2023-03-08T18:33:33.738Z,100.00
2023-03-08T18:35:37.845Z,100.00
2023-03-08T18:37:40.553Z,100.00
2023-03-08T18:39:43.264Z,100.00
2023-03-08T18:41:46.032Z,100.00
2023-03-08T18:43:48.959Z,100.00
2023-03-08T18:45:52.558Z,100.00
2023-03-08T18:47:55.203Z,100.00
2023-03-08T18:49:57.840Z,100.00
2023-03-08T18:52:01.867Z,100.00
2023-03-08T18:54:05.426Z,100.00
2023-03-08T18:56:08.644Z,100.00
2023-03-08T18:58:11.707Z,100.00
2023-03-08T19:00:15.610Z,100.00
2023-03-08T19:02:18.536Z,100.00
2023-03-08T19:04:21.551Z,100.00
2023-03-08T19:06:24.211Z,100.00
2023-03-08T19:08:29.182Z,100.00
2023-03-08T19:10:33.300Z,100.00
2023-03-08T19:12:37.911Z,100.00
2023-03-08T19:14:40.796Z,100.00
2023-03-08T19:16:43.753Z,100.00
2023-03-08T19:18:46.716Z,100.00
2023-03-08T19:20:49.426Z,100.00
2023-03-08T19:22:52.206Z,100.00
2023-03-08T19:24:56.342Z,100.00
2023-03-08T19:27:03.152Z,100.00
2023-03-08T19:29:08.586Z,100.00
2023-03-08T19:31:17.581Z,100.00
2023-03-08T19:33:30.549Z,100.00
2023-03-08T19:35:35.245Z,100.00
2023-03-08T19:37:38.157Z,100.00
2023-03-08T19:39:43.577Z,100.00
2023-03-08T19:41:50.697Z,100.00
2023-03-08T19:43:53.351Z,100.00
2023-03-08T19:45:56.677Z,100.00
2023-03-08T19:47:59.329Z,100.00
2023-03-08T19:50:01.964Z,100.00
2023-03-08T19:52:06.742Z,100.00
2023-03-08T19:54:10.308Z,100.00
2023-03-08T19:56:16.119Z,100.00
2023-03-08T19:58:21.335Z,100.00
2023-03-08T20:00:24.499Z,100.00
2023-03-08T20:02:28.209Z,100.00
2023-03-08T20:04:31.028Z,100.00
2023-03-08T20:06:36.368Z,100.00
2023-03-08T20:08:40.420Z,100.00
2023-03-08T20:10:43.335Z,100.00
2023-03-08T20:12:47.079Z,100.00
2023-03-08T20:14:51.199Z,100.00
2023-03-08T20:16:53.947Z,100.00
2023-03-08T20:18:57.451Z,100.00
2023-03-08T20:21:02.160Z,100.00
2023-03-08T20:23:05.063Z,100.00
2023-03-08T20:25:11.420Z,100.00
2023-03-08T20:27:14.157Z,100.00
2023-03-08T20:29:17.453Z,100.00
2023-03-08T20:31:21.516Z,100.00
2023-03-08T20:33:24.241Z,100.00
2023-03-08T20:35:27.024Z,100.00
2023-03-08T20:37:29.809Z,100.00
2023-03-08T20:39:32.576Z,100.00
2023-03-08T20:41:35.383Z,100.00
2023-03-08T20:43:38.748Z,100.00
2023-03-08T20:45:41.731Z,100.00
2023-03-08T20:47:46.597Z,100.00
2023-03-08T20:49:49.733Z,100.00
2023-03-08T20:51:52.508Z,100.00
2023-03-08T20:53:55.783Z,100.00
2023-03-08T20:55:58.839Z,100.00
2023-03-08T20:58:01.669Z,100.00
2023-03-08T21:00:06.862Z,100.00
2023-03-08T21:02:12.223Z,100.00
2023-03-08T21:04:16.718Z,100.00
2023-03-08T21:06:21.806Z,100.00
2023-03-08T21:08:25.140Z,100.00
2023-03-08T21:10:28.020Z,100.00
2023-03-08T21:12:30.804Z,100.00
2023-03-08T21:14:33.544Z,100.00
2023-03-08T21:16:36.385Z,100.00
2023-03-08T21:18:39.219Z,100.00
2023-03-08T21:20:44.895Z,100.00
2023-03-08T21:22:47.839Z,100.00
2023-03-08T21:24:50.592Z,100.00
2023-03-08T21:26:53.856Z,100.00
2023-03-08T21:28:58.776Z,100.00
2023-03-08T21:31:01.524Z,100.00
2023-03-08T21:33:04.267Z,100.00
2023-03-08T21:35:07.778Z,100.00
2023-03-08T21:37:11.884Z,100.00
2023-03-08T21:39:14.889Z,100.00
2023-03-08T21:41:18.733Z,100.00
2023-03-08T21:43:21.410Z,100.00
2023-03-08T21:45:24.133Z,100.00
2023-03-08T21:47:26.946Z,100.00
2023-03-08T21:49:35.023Z,100.00
2023-03-08T21:51:38.407Z,100.00
2023-03-08T21:53:43.141Z,100.00
2023-03-08T21:55:45.834Z,100.00
2023-03-08T21:57:48.834Z,100.00
2023-03-08T21:59:51.796Z,100.00
2023-03-08T22:01:58.366Z,100.00
2023-03-08T22:04:02.868Z,100.00
2023-03-08T22:06:05.792Z,100.00
2023-03-08T22:08:08.528Z,100.00
2023-03-08T22:10:14.775Z,100.00
2023-03-08T22:12:17.935Z,100.00
2023-03-08T22:14:20.662Z,100.00
2023-03-08T22:16:24.008Z,100.00
2023-03-08T22:18:26.762Z,100.00
2023-03-08T22:20:29.446Z,100.00
2023-03-08T22:22:32.189Z,100.00
2023-03-08T22:24:34.932Z,100.00
2023-03-08T22:26:39.050Z,100.00
2023-03-08T22:28:41.803Z,100.00
2023-03-08T22:30:44.537Z,100.00
2023-03-08T22:32:47.970Z,100.00
2023-03-08T22:34:50.982Z,100.00
2023-03-08T22:36:54.354Z,100.00
2023-03-08T22:38:57.097Z,100.00
2023-03-08T22:40:59.868Z,100.00
2023-03-08T22:43:03.904Z,100.00
2023-03-08T22:45:07.866Z,100.00
2023-03-08T22:47:10.609Z,100.00
2023-03-08T22:49:14.907Z,100.00
2023-03-08T22:51:21.260Z,100.00
2023-03-08T22:53:24.034Z,100.00
2023-03-08T22:55:26.895Z,100.00
2023-03-08T22:57:29.605Z,100.00
2023-03-08T22:59:33.701Z,100.00
2023-03-08T23:01:36.659Z,100.00
2023-03-08T23:03:40.420Z,100.00
2023-03-08T23:05:43.157Z,100.00
2023-03-08T23:07:46.504Z,100.00
2023-03-08T23:09:49.323Z,100.00
2023-03-08T23:11:52.063Z,100.00
2023-03-08T23:13:54.840Z,100.00
2023-03-08T23:15:59.006Z,100.00
2023-03-08T23:18:01.805Z,100.00
2023-03-08T23:20:06.640Z,100.00
2023-03-08T23:22:09.409Z,100.00
2023-03-08T23:24:12.890Z,100.00
2023-03-08T23:26:17.861Z,100.00
2023-03-08T23:28:20.820Z,100.00
2023-03-08T23:30:23.845Z,100.00
2023-03-08T23:32:28.018Z,100.00
2023-03-08T23:34:30.841Z,100.00
2023-03-08T23:36:34.876Z,100.00
2023-03-08T23:38:37.743Z,100.00
2023-03-08T23:40:40.641Z,100.00
2023-03-08T23:42:43.400Z,100.00
2023-03-08T23:44:46.186Z,100.00
2023-03-08T23:46:48.969Z,100.00
2023-03-08T23:48:57.701Z,100.00
2023-03-08T23:51:00.542Z,100.00
2023-03-08T23:53:03.250Z,100.00
2023-03-08T23:55:07.006Z,100.00
2023-03-08T23:57:09.801Z,100.00
2023-03-08T23:59:15.823Z,100.00
